Time;durP1;ratioP1;P1;durP2;ratioP2;P2;SDS_P1;SDS_P2;PMS_P1;PMS_P2;Temp;Humidity;BMP_temperature;BMP_pressure;BME280_temperature;BME280_humidity;BME280_pressure;Samples;Min_cycle;Max_cycle;Signal;HPM_P1;HPM_P2
2021/03/24 00:00:51;;;;;;;;;35.50;33.00;;;;;;;;5004554;28;11617;-91
2021/03/24 00:03:18;;;;;;;;;40.50;40.50;;;;;;;;5005326;28;11640;-87
2021/03/24 00:05:47;;;;;;;;;48.67;38.33;;;;;;;;5006286;28;11646;-88
2021/03/24 00:08:15;;;;;;;;;52.33;44.00;;;;;;;;5004274;28;11621;-90
2021/03/24 00:10:42;;;;;;;;;40.25;38.75;;;;;;;;5006697;28;11632;-90
2021/03/24 00:13:10;;;;;;;;;40.25;33.00;;;;;;;;5003349;28;11644;-84
2021/03/24 00:15:37;;;;;;;;;39.50;33.75;;;;;;;;5005444;28;11669;-85
2021/03/24 00:18:06;;;;;;;;;40.50;38.75;;;;;;;;5002989;28;11634;-85
2021/03/24 00:20:35;;;;;;;;;40.75;36.00;;;;;;;;5006882;28;11641;-79
2021/03/24 00:23:02;;;;;;;;;48.00;38.25;;;;;;;;5017960;28;11739;-91
2021/03/24 00:25:29;;;;;;;;;45.00;43.00;;;;;;;;5008560;28;11689;-86
2021/03/24 00:27:57;;;;;;;;;39.75;30.25;;;;;;;;5005553;28;11601;-88
2021/03/24 00:30:27;;;;;;;;;41.00;33.00;;;;;;;;5003177;28;11721;-87
2021/03/24 00:32:54;;;;;;;;;32.25;32.00;;;;;;;;5005885;28;11680;-89
2021/03/24 00:35:22;;;;;;;;;39.00;31.50;;;;;;;;5005203;28;11620;-90
2021/03/24 00:37:49;;;;;;;;;28.00;25.50;;;;;;;;5004838;28;11653;-82
2021/03/24 00:40:19;;;;;;;;;29.75;27.25;;;;;;;;5003358;28;12400;-88
2021/03/24 00:42:45;;;;;;;;;37.50;33.25;;;;;;;;5004135;28;11754;-87
2021/03/24 00:45:14;;;;;;;;;33.75;31.75;;;;;;;;5004387;28;11725;-88
2021/03/24 00:47:42;;;;;;;;;31.25;28.75;;;;;;;;5004388;28;11610;-88
2021/03/24 00:50:12;;;;;;;;;28.00;26.25;;;;;;;;5006115;28;11660;-87
2021/03/24 00:52:40;;;;;;;;;36.75;33.75;;;;;;;;5003598;28;11615;-88
2021/03/24 00:55:08;;;;;;;;;31.00;27.00;;;;;;;;5005150;28;11665;-88
2021/03/24 00:57:35;;;;;;;;;28.75;28.25;;;;;;;;5003785;28;11768;-88
2021/03/24 01:00:02;;;;;;;;;37.00;32.00;;;;;;;;5004635;28;11763;-87
2021/03/24 01:02:29;;;;;;;;;33.00;30.00;;;;;;;;5004927;28;11611;-87
2021/03/24 01:04:55;;;;;;;;;23.00;23.00;;;;;;;;5002670;28;11618;-88
2021/03/24 01:07:22;;;;;;;;;42.33;33.33;;;;;;;;5004677;28;11727;-83
2021/03/24 01:09:50;;;;;;;;;40.00;28.67;;;;;;;;5003428;28;11637;-90
2021/03/24 01:12:17;;;;;;;;;39.33;32.67;;;;;;;;5004534;28;11630;-88
2021/03/24 01:14:44;;;;;;;;;25.67;25.67;;;;;;;;5003511;28;11626;-84
2021/03/24 01:17:11;;;;;;;;;28.33;20.00;;;;;;;;5004948;28;11638;-90
2021/03/24 01:19:38;;;;;;;;;37.00;32.67;;;;;;;;5004307;28;11645;-90
2021/03/24 01:22:05;;;;;;;;;33.33;29.00;;;;;;;;5005707;28;11656;-89
2021/03/24 01:24:32;;;;;;;;;30.33;29.33;;;;;;;;5006302;28;11636;-80
2021/03/24 01:27:00;;;;;;;;;43.67;39.00;;;;;;;;5003240;28;11743;-88
2021/03/24 01:29:27;;;;;;;;;37.67;31.67;;;;;;;;4999370;28;11636;-85
2021/03/24 01:31:54;;;;;;;;;30.33;28.67;;;;;;;;5009803;28;8955;-83
2021/03/24 01:34:21;;;;;;;;;38.67;36.00;;;;;;;;5003726;28;11730;-84
2021/03/24 01:36:48;;;;;;;;;31.33;31.33;;;;;;;;5004591;28;8863;-82
2021/03/24 01:39:15;;;;;;;;;32.00;28.67;;;;;;;;5010294;28;9613;-89
2021/03/24 01:41:42;;;;;;;;;40.33;38.33;;;;;;;;5006308;28;11612;-91
2021/03/24 01:44:10;;;;;;;;;39.33;34.33;;;;;;;;5004114;28;8862;-86
2021/03/24 01:46:42;;;;;;;;;33.00;32.00;;;;;;;;5004687;28;8878;-86
2021/03/24 01:49:15;;;;;;;;;29.67;29.00;;;;;;;;5004049;28;11657;-85
2021/03/24 01:51:45;;;;;;;;;34.00;31.67;;;;;;;;5004452;28;8879;-90
2021/03/24 01:54:15;;;;;;;;;32.67;32.67;;;;;;;;5004054;28;8888;-86
2021/03/24 01:56:44;;;;;;;;;45.00;33.00;;;;;;;;5001377;28;8918;-86
2021/03/24 01:59:13;;;;;;;;;56.67;47.67;;;;;;;;5004669;28;8867;-90
2021/03/24 02:01:39;;;;;;;;;47.33;38.67;;;;;;;;4998403;28;8858;-89
2021/03/24 02:04:06;;;;;;;;;45.33;41.00;;;;;;;;5004302;28;8879;-88
2021/03/24 02:06:40;;;;;;;;;45.33;41.33;;;;;;;;5003752;28;8884;-88
2021/03/24 02:09:15;;;;;;;;;43.33;41.00;;;;;;;;5004136;28;8909;-89
2021/03/24 02:11:48;;;;;;;;;45.00;38.33;;;;;;;;5004691;28;8894;-90
2021/03/24 02:14:22;;;;;;;;;52.00;39.67;;;;;;;;5002050;28;8889;-94
2021/03/24 02:16:51;;;;;;;;;47.67;42.00;;;;;;;;5004588;28;8889;-93
2021/03/24 02:20:01;;;;;;;;;46.00;43.00;;;;;;;;5004169;28;8892;-91
2021/03/24 02:22:32;;;;;;;;;40.33;38.00;;;;;;;;4968647;28;8891;-90
2021/03/24 02:25:03;;;;;;;;;46.33;43.67;;;;;;;;4991184;28;8902;-88
2021/03/24 02:27:34;;;;;;;;;45.67;42.33;;;;;;;;5002470;28;8990;-90
2021/03/24 02:30:07;;;;;;;;;50.00;39.67;;;;;;;;5004709;28;9653;-86
2021/03/24 02:32:37;;;;;;;;;49.00;44.00;;;;;;;;5002512;28;8831;-86
2021/03/24 02:35:08;;;;;;;;;54.67;45.33;;;;;;;;5006666;28;8894;-89
2021/03/24 02:37:36;;;;;;;;;39.00;32.00;;;;;;;;5002404;28;8939;-85
2021/03/24 02:40:07;;;;;;;;;58.00;47.67;;;;;;;;5004935;28;8875;-86
2021/03/24 02:42:35;;;;;;;;;47.00;40.33;;;;;;;;5007390;28;8850;-88
2021/03/24 02:45:04;;;;;;;;;44.33;40.33;;;;;;;;5006169;28;8878;-90
2021/03/24 02:47:31;;;;;;;;;50.00;43.00;;;;;;;;5008076;28;9651;-89
2021/03/24 02:49:58;;;;;;;;;43.33;39.33;;;;;;;;5006856;28;8863;-93
2021/03/24 02:52:27;;;;;;;;;54.00;45.33;;;;;;;;5006698;28;8900;-85
2021/03/24 02:54:54;;;;;;;;;36.33;34.00;;;;;;;;5012899;28;8901;-88
2021/03/24 02:57:21;;;;;;;;;37.00;35.67;;;;;;;;5012575;28;9008;-95
2021/03/24 02:59:51;;;;;;;;;48.00;39.67;;;;;;;;5008148;28;8959;-92
2021/03/24 03:02:21;;;;;;;;;48.00;39.67;;;;;;;;5006251;28;8815;-93
2021/03/24 03:04:51;;;;;;;;;46.00;41.00;;;;;;;;5007338;28;8878;-90
2021/03/24 03:07:21;;;;;;;;;46.33;38.00;;;;;;;;5003942;28;8985;-89
2021/03/24 03:09:50;;;;;;;;;44.00;37.33;;;;;;;;5008254;28;8858;-90
2021/03/24 03:12:23;;;;;;;;;34.33;29.33;;;;;;;;5006538;28;8874;-87
2021/03/24 03:14:56;;;;;;;;;34.33;34.33;;;;;;;;5006794;28;8913;-87
2021/03/24 03:17:28;;;;;;;;;32.33;30.00;;;;;;;;5007300;28;9668;-90
2021/03/24 03:20:00;;;;;;;;;48.33;39.33;;;;;;;;5004418;28;8883;-89
2021/03/24 03:22:32;;;;;;;;;37.00;32.33;;;;;;;;5012697;28;8971;-92
2021/03/24 03:25:04;;;;;;;;;46.00;43.00;;;;;;;;5002320;28;8866;-87
2021/03/24 03:27:31;;;;;;;;;46.00;37.67;;;;;;;;5005797;28;8879;-88
2021/03/24 03:30:01;;;;;;;;;40.67;34.67;;;;;;;;5004784;28;8936;-84
2021/03/24 03:32:29;;;;;;;;;44.33;41.00;;;;;;;;5013825;28;8863;-85
2021/03/24 03:34:59;;;;;;;;;45.67;37.33;;;;;;;;5007873;28;9035;-83
2021/03/24 03:37:27;;;;;;;;;44.33;38.67;;;;;;;;5005373;28;9020;-84
2021/03/24 03:39:55;;;;;;;;;54.00;40.33;;;;;;;;5006886;28;8879;-85
2021/03/24 03:42:23;;;;;;;;;49.33;42.00;;;;;;;;5003624;28;8886;-89
2021/03/24 03:44:51;;;;;;;;;52.67;44.00;;;;;;;;5005856;28;8862;-83
2021/03/24 03:47:19;;;;;;;;;47.67;44.67;;;;;;;;5005159;28;9645;-89
2021/03/24 03:49:46;;;;;;;;;56.33;41.33;;;;;;;;5005304;28;8869;-83
2021/03/24 03:52:25;;;;;;;;;52.33;45.00;;;;;;;;5006042;28;8867;-80
2021/03/24 03:54:59;;;;;;;;;53.67;43.33;;;;;;;;5005548;28;8886;-87
2021/03/24 03:57:32;;;;;;;;;43.33;41.67;;;;;;;;5006240;28;8875;-85
2021/03/24 04:00:10;;;;;;;;;46.67;43.67;;;;;;;;5005426;28;8882;-88
2021/03/24 04:02:43;;;;;;;;;40.67;37.00;;;;;;;;5014941;28;8827;-88
2021/03/24 04:05:16;;;;;;;;;51.67;45.00;;;;;;;;5013917;28;8847;-79
2021/03/24 04:07:45;;;;;;;;;53.00;41.33;;;;;;;;4993598;28;8971;-85
2021/03/24 04:10:12;;;;;;;;;60.67;50.33;;;;;;;;5005930;28;9523;-80
2021/03/24 04:12:41;;;;;;;;;40.00;40.00;;;;;;;;5005160;28;9668;-82
2021/03/24 04:15:12;;;;;;;;;59.00;46.00;;;;;;;;5006405;28;8859;-80
2021/03/24 04:17:45;;;;;;;;;61.33;46.33;;;;;;;;5005995;28;8965;-83
2021/03/24 04:20:13;;;;;;;;;46.67;43.67;;;;;;;;5004671;28;8870;-83
2021/03/24 04:22:42;;;;;;;;;58.33;46.67;;;;;;;;5007686;28;8905;-83
2021/03/24 04:25:11;;;;;;;;;53.00;48.00;;;;;;;;5007479;28;8879;-82
2021/03/24 04:27:38;;;;;;;;;52.00;49.00;;;;;;;;5005464;28;8882;-75
2021/03/24 04:30:08;;;;;;;;;52.00;37.00;;;;;;;;5002692;28;8867;-80
2021/03/24 04:32:36;;;;;;;;;70.00;52.00;;;;;;;;5010018;28;8951;-84
2021/03/24 04:35:06;;;;;;;;;59.67;49.67;;;;;;;;5001088;28;8867;-79
2021/03/24 04:37:37;;;;;;;;;43.67;43.67;;;;;;;;5014082;28;8890;-86
2021/03/24 04:40:07;;;;;;;;;44.00;41.33;;;;;;;;5004072;28;8857;-89
2021/03/24 04:42:39;;;;;;;;;55.00;48.00;;;;;;;;5002829;28;8875;-89
2021/03/24 04:45:38;;;;;;;;;57.00;48.00;;;;;;;;5005735;28;8977;-88
2021/03/24 04:48:09;;;;;;;;;54.00;47.33;;;;;;;;5001695;28;8983;-88
2021/03/24 04:50:41;;;;;;;;;48.67;42.33;;;;;;;;5005038;28;8855;-88
2021/03/24 04:53:12;;;;;;;;;64.00;51.67;;;;;;;;5004273;28;8902;-87
2021/03/24 04:55:39;;;;;;;;;47.33;39.67;;;;;;;;5007707;28;8906;-88
2021/03/24 04:58:07;;;;;;;;;60.33;49.67;;;;;;;;5006776;28;8882;-88
2021/03/24 05:00:40;;;;;;;;;73.00;58.00;;;;;;;;5005552;28;8973;-89
2021/03/24 05:03:10;;;;;;;;;71.67;54.00;;;;;;;;5006322;28;9649;-88
2021/03/24 05:05:44;;;;;;;;;71.33;53.33;;;;;;;;5004784;28;8882;-93
2021/03/24 05:08:16;;;;;;;;;70.00;57.00;;;;;;;;5006861;28;8916;-88
2021/03/24 05:10:43;;;;;;;;;73.33;54.33;;;;;;;;5010509;28;8847;-88
2021/03/24 05:13:16;;;;;;;;;70.00;55.00;;;;;;;;5005405;28;8867;-91
2021/03/24 05:15:46;;;;;;;;;66.00;49.00;;;;;;;;5007400;28;8870;-89
2021/03/24 05:18:15;;;;;;;;;58.67;50.00;;;;;;;;5010575;28;8863;-89
2021/03/24 05:20:47;;;;;;;;;68.67;55.67;;;;;;;;5007932;28;8903;-90
2021/03/24 05:23:17;;;;;;;;;54.00;49.00;;;;;;;;5009693;28;8866;-89
2021/03/24 05:25:47;;;;;;;;;71.33;57.00;;;;;;;;5003923;28;8878;-85
2021/03/24 05:28:20;;;;;;;;;53.33;48.00;;;;;;;;5005786;28;8989;-90
2021/03/24 05:30:53;;;;;;;;;59.00;50.67;;;;;;;;5004665;28;8819;-86
2021/03/24 05:33:24;;;;;;;;;52.33;46.00;;;;;;;;5003967;28;8941;-89
2021/03/24 05:36:02;;;;;;;;;67.67;54.00;;;;;;;;5004796;28;8897;-87
2021/03/24 05:38:34;;;;;;;;;68.33;54.67;;;;;;;;5004586;28;8879;-84
2021/03/24 05:41:09;;;;;;;;;47.67;45.00;;;;;;;;5008421;28;8854;-89
2021/03/24 05:44:13;;;;;;;;;60.67;51.67;;;;;;;;5001958;28;8917;-85
2021/03/24 05:47:07;;;;;;;;;69.67;56.33;;;;;;;;5002579;28;9000;-82
2021/03/24 05:49:41;;;;;;;;;61.67;53.33;;;;;;;;5001484;28;8905;-84
2021/03/24 05:52:33;;;;;;;;;71.33;56.33;;;;;;;;5004809;28;8862;-83
2021/03/24 05:55:19;;;;;;;;;69.67;57.67;;;;;;;;5004282;28;8866;-81
2021/03/24 05:58:06;;;;;;;;;67.67;51.33;;;;;;;;5000418;28;9342;-83
2021/03/24 06:00:37;;;;;;;;;60.00;45.33;;;;;;;;5002011;28;8791;-79
2021/03/24 06:03:09;;;;;;;;;63.67;50.33;;;;;;;;4998198;28;8909;-83
2021/03/24 06:05:42;;;;;;;;;67.00;49.00;;;;;;;;5003483;28;8885;-83
2021/03/24 06:08:45;;;;;;;;;61.00;48.00;;;;;;;;5004265;28;8898;-82
2021/03/24 06:11:38;;;;;;;;;57.67;52.00;;;;;;;;5002014;28;8878;-84
2021/03/24 06:14:56;;;;;;;;;64.33;51.67;;;;;;;;5002425;28;8883;-85
2021/03/24 06:17:48;;;;;;;;;59.33;49.00;;;;;;;;5008318;28;8882;-82
2021/03/24 06:20:27;;;;;;;;;59.33;48.33;;;;;;;;5002774;28;8851;-88
2021/03/24 06:23:15;;;;;;;;;68.33;55.33;;;;;;;;5007043;28;8870;-87
2021/03/24 06:25:46;;;;;;;;;73.67;58.00;;;;;;;;5006362;28;8878;-85
2021/03/24 06:28:33;;;;;;;;;65.33;54.67;;;;;;;;5004968;28;8885;-75
2021/03/24 06:31:27;;;;;;;;;71.33;54.00;;;;;;;;5002972;28;8819;-75
2021/03/24 06:34:14;;;;;;;;;69.00;58.67;;;;;;;;4974665;28;8858;-75
2021/03/24 06:36:53;;;;;;;;;78.33;62.67;;;;;;;;5007638;28;9007;-74
2021/03/24 06:39:40;;;;;;;;;71.33;55.33;;;;;;;;5004719;28;8871;-74
2021/03/24 06:42:29;;;;;;;;;74.33;60.00;;;;;;;;4999022;28;8929;-76
2021/03/24 06:45:43;;;;;;;;;76.67;61.67;;;;;;;;5002900;28;9641;-77
2021/03/24 06:48:34;;;;;;;;;70.00;57.00;;;;;;;;4958965;28;8895;-70
2021/03/24 06:51:42;;;;;;;;;67.00;56.33;;;;;;;;5008828;28;10257;-70
2021/03/24 06:54:30;;;;;;;;;83.33;61.67;;;;;;;;5006432;28;8862;-70
2021/03/24 06:57:27;;;;;;;;;76.00;61.67;;;;;;;;4995636;28;8898;-70
2021/03/24 07:00:23;;;;;;;;;88.33;65.00;;;;;;;;4970746;28;8882;-70
2021/03/24 07:03:20;;;;;;;;;89.00;70.00;;;;;;;;4996441;28;8835;-71
2021/03/24 07:06:04;;;;;;;;;95.00;71.00;;;;;;;;5000891;28;8989;-69
2021/03/24 07:08:50;;;;;;;;;93.00;67.33;;;;;;;;5004453;28;8894;-71
2021/03/24 07:11:34;;;;;;;;;88.00;66.33;;;;;;;;5004099;28;8866;-70
2021/03/24 07:14:20;;;;;;;;;88.33;70.67;;;;;;;;5005089;28;8866;-69
2021/03/24 07:17:23;;;;;;;;;93.33;67.67;;;;;;;;4983237;28;8850;-69
2021/03/24 07:20:11;;;;;;;;;88.33;68.00;;;;;;;;5002862;28;8940;-71
2021/03/24 07:22:57;;;;;;;;;94.67;68.33;;;;;;;;5003860;28;8959;-70
2021/03/24 07:25:54;;;;;;;;;92.00;70.33;;;;;;;;5005854;28;8878;-70
2021/03/24 07:28:44;;;;;;;;;84.00;64.00;;;;;;;;4922422;29;8896;-71
2021/03/24 07:31:30;;;;;;;;;86.00;66.00;;;;;;;;4998455;28;8823;-70
2021/03/24 07:34:03;;;;;;;;;87.67;69.00;;;;;;;;4999638;28;8956;-71
2021/03/24 07:36:55;;;;;;;;;87.33;67.33;;;;;;;;5004300;28;8870;-70
2021/03/24 07:39:40;;;;;;;;;95.67;69.00;;;;;;;;5004506;28;8890;-70
2021/03/24 07:42:38;;;;;;;;;85.00;64.00;;;;;;;;5003741;28;9711;-70
2021/03/24 07:45:31;;;;;;;;;82.67;64.00;;;;;;;;5004320;28;8886;-70
2021/03/24 07:48:33;;;;;;;;;86.33;67.67;;;;;;;;5005129;28;8874;-69
2021/03/24 07:51:10;;;;;;;;;76.67;61.33;;;;;;;;4925888;28;8983;-69
2021/03/24 07:53:42;;;;;;;;;82.00;62.67;;;;;;;;5000441;28;9007;-70
2021/03/24 07:56:19;;;;;;;;;83.33;64.67;;;;;;;;5002898;28;8997;-68
2021/03/24 07:59:17;;;;;;;;;83.33;64.00;;;;;;;;5006654;28;8870;-69
2021/03/24 08:01:54;;;;;;;;;80.00;63.00;;;;;;;;4984516;28;12461;-69
2021/03/24 08:04:43;;;;;;;;;75.00;60.50;;;;;;;;5005603;28;11691;-69
2021/03/24 08:07:15;;;;;;;;;75.67;61.00;;;;;;;;4978664;28;11644;-70
2021/03/24 08:09:56;;;;;;;;;80.25;62.00;;;;;;;;5004677;28;11646;-70
2021/03/24 08:12:48;;;;;;;;;83.50;62.00;;;;;;;;5003176;28;11645;-69
2021/03/24 08:15:32;;;;;;;;;82.25;65.25;;;;;;;;5003238;28;11727;-70
2021/03/24 08:18:12;;;;;;;;;83.00;66.00;;;;;;;;5004013;28;11721;-70
2021/03/24 08:20:50;;;;;;;;;83.00;64.00;;;;;;;;5004114;28;11861;-69
2021/03/24 08:23:38;;;;;;;;;79.50;61.25;;;;;;;;5010266;28;11643;-69
2021/03/24 08:26:14;;;;;;;;;85.75;60.75;;;;;;;;4995383;28;11626;-68
2021/03/24 08:28:54;;;;;;;;;75.75;59.75;;;;;;;;5002341;28;11743;-70
2021/03/24 08:31:58;;;;;;;;;74.50;57.50;;;;;;;;5003156;28;11695;-69
2021/03/24 08:34:47;;;;;;;;;73.75;60.25;;;;;;;;5003014;28;11637;-69
2021/03/24 08:37:44;;;;;;;;;55.75;48.00;;;;;;;;4998599;28;12578;-69
2021/03/24 08:40:42;;;;;;;;;71.25;56.25;;;;;;;;5002254;28;11636;-70
2021/03/24 08:43:43;;;;;;;;;67.25;53.75;;;;;;;;4959077;28;11652;-70
2021/03/24 08:46:16;;;;;;;;;62.25;50.25;;;;;;;;4961772;28;11662;-70
2021/03/24 08:48:47;;;;;;;;;69.75;54.50;;;;;;;;4999409;28;11735;-69
2021/03/24 08:51:22;;;;;;;;;71.25;57.25;;;;;;;;5004014;28;12793;-70
2021/03/24 08:54:01;;;;;;;;;68.75;55.25;;;;;;;;5001020;28;11636;-70
2021/03/24 08:56:36;;;;;;;;;65.75;54.75;;;;;;;;5005393;28;11623;-70
2021/03/24 08:59:15;;;;;;;;;61.50;50.50;;;;;;;;5001158;28;11650;-71
2021/03/24 09:02:01;;;;;;;;;68.75;56.50;;;;;;;;5000546;28;11613;-71
2021/03/24 09:04:46;;;;;;;;;65.75;50.25;;;;;;;;5001952;28;11607;-70
2021/03/24 09:07:35;;;;;;;;;65.50;51.50;;;;;;;;5002177;28;11639;-71
2021/03/24 09:10:13;;;;;;;;;65.50;52.25;;;;;;;;5002121;28;11745;-71
2021/03/24 09:12:47;;;;;;;;;52.50;44.75;;;;;;;;4999831;28;12396;-70
2021/03/24 09:15:22;;;;;;;;;68.50;52.50;;;;;;;;5000010;28;11602;-70
2021/03/24 09:18:09;;;;;;;;;66.00;51.75;;;;;;;;5003900;28;11605;-69
2021/03/24 09:21:01;;;;;;;;;66.25;53.25;;;;;;;;5003614;28;11568;-70
2021/03/24 09:24:09;;;;;;;;;60.25;50.75;;;;;;;;5002701;28;11753;-69
2021/03/24 09:27:06;;;;;;;;;68.00;53.00;;;;;;;;5002616;28;11579;-70
2021/03/24 09:29:45;;;;;;;;;68.50;52.25;;;;;;;;4994483;28;11569;-72
2021/03/24 09:32:29;;;;;;;;;63.25;53.75;;;;;;;;5009418;28;11584;-69
2021/03/24 09:35:24;;;;;;;;;66.75;52.75;;;;;;;;5012519;28;11685;-69
2021/03/24 09:37:59;;;;;;;;;62.00;49.00;;;;;;;;4992408;28;12064;-70
2021/03/24 09:40:31;;;;;;;;;58.50;49.25;;;;;;;;5002302;28;11219;-70
2021/03/24 09:42:59;;;;;;;;;63.25;50.25;;;;;;;;5002379;28;11271;-70
2021/03/24 09:45:29;;;;;;;;;65.00;53.50;;;;;;;;5003399;28;11190;-70
2021/03/24 09:48:07;;;;;;;;;57.50;48.50;;;;;;;;5002433;28;11114;-70
2021/03/24 09:50:42;;;;;;;;;55.50;44.50;;;;;;;;5001565;28;11034;-70
2021/03/24 09:53:19;;;;;;;;;61.75;48.00;;;;;;;;5003035;28;10717;-70
2021/03/24 09:55:49;;;;;;;;;59.00;47.75;;;;;;;;4999858;28;10715;-70
2021/03/24 09:58:53;;;;;;;;;54.25;46.75;;;;;;;;5003025;28;10869;-71
2021/03/24 10:01:46;;;;;;;;;55.75;45.50;;;;;;;;4987227;28;11346;-72
2021/03/24 10:04:26;;;;;;;;;46.75;40.00;;;;;;;;5000160;28;10392;-71
2021/03/24 10:07:01;;;;;;;;;59.75;48.25;;;;;;;;5001478;28;10014;-71
2021/03/24 10:09:34;;;;;;;;;58.50;48.25;;;;;;;;5004973;28;10390;-71
2021/03/24 10:12:18;;;;;;;;;53.00;45.50;;;;;;;;4999901;28;10313;-71
2021/03/24 10:14:51;;;;;;;;;47.25;37.50;;;;;;;;5001171;28;10163;-71
2021/03/24 10:17:22;;;;;;;;;39.50;36.75;;;;;;;;5002203;28;9647;-70
2021/03/24 10:19:57;;;;;;;;;50.00;38.50;;;;;;;;5002949;28;9518;-73
2021/03/24 10:22:33;;;;;;;;;47.00;37.00;;;;;;;;5001065;28;9736;-70
2021/03/24 10:25:07;;;;;;;;;47.50;40.25;;;;;;;;5001770;28;9572;-71
2021/03/24 10:27:34;;;;;;;;;40.33;36.33;;;;;;;;5002960;28;9564;-70
2021/03/24 10:30:21;;;;;;;;;48.00;40.00;;;;;;;;5002177;28;9422;-71
2021/03/24 10:32:50;;;;;;;;;45.00;38.00;;;;;;;;5011609;28;9649;-70
2021/03/24 10:35:25;;;;;;;;;37.67;34.00;;;;;;;;5001992;28;9273;-70
2021/03/24 10:37:56;;;;;;;;;46.00;37.00;;;;;;;;5002952;28;9227;-71
2021/03/24 10:40:27;;;;;;;;;40.67;33.67;;;;;;;;5003461;28;9178;-74
2021/03/24 10:42:58;;;;;;;;;42.33;35.33;;;;;;;;5000298;28;9079;-71
2021/03/24 10:45:27;;;;;;;;;40.00;33.33;;;;;;;;5002676;28;9791;-70
2021/03/24 10:47:58;;;;;;;;;35.50;32.00;;;;;;;;5000616;28;8976;-71
2021/03/24 10:50:36;;;;;;;;;33.00;32.50;;;;;;;;5004325;28;8890;-71
2021/03/24 10:53:09;;;;;;;;;32.00;30.50;;;;;;;;5001095;28;8969;-70
2021/03/24 10:55:38;;;;;;;;;33.75;28.00;;;;;;;;5002686;28;8874;-70
2021/03/24 10:58:43;;;;;;;;;30.25;29.50;;;;;;;;5001803;28;8889;-70
2021/03/24 11:01:14;;;;;;;;;32.25;28.50;;;;;;;;4995163;28;8795;-70
2021/03/24 11:03:55;;;;;;;;;33.00;28.50;;;;;;;;5005156;28;8871;-70
2021/03/24 11:06:26;;;;;;;;;32.50;29.25;;;;;;;;5004607;28;8893;-70
2021/03/24 11:09:00;;;;;;;;;30.25;30.25;;;;;;;;5003304;28;8906;-70
2021/03/24 11:11:31;;;;;;;;;13.00;9.75;;;;;;;;5002154;28;8890;-71
2021/03/24 11:14:01;;;;;;;;;29.25;27.75;;;;;;;;5003000;28;8870;-70
2021/03/24 11:16:34;;;;;;;;;36.25;32.00;;;;;;;;5005094;28;8858;-70
2021/03/24 11:19:11;;;;;;;;;34.50;30.50;;;;;;;;5005140;28;8898;-71
2021/03/24 11:21:44;;;;;;;;;29.50;28.50;;;;;;;;5009805;28;8859;-70
2021/03/24 11:24:24;;;;;;;;;29.75;29.75;;;;;;;;5004727;28;8855;-71
2021/03/24 11:27:08;;;;;;;;;32.75;29.50;;;;;;;;5006374;28;8871;-70
2021/03/24 11:29:46;;;;;;;;;26.25;25.50;;;;;;;;5002197;28;8882;-72
2021/03/24 11:32:27;;;;;;;;;29.25;25.50;;;;;;;;5003992;28;8811;-72
2021/03/24 11:34:57;;;;;;;;;23.75;22.00;;;;;;;;5003191;28;8883;-74
2021/03/24 11:37:41;;;;;;;;;22.00;20.25;;;;;;;;5006257;28;9632;-71
2021/03/24 11:40:30;;;;;;;;;21.75;21.25;;;;;;;;4995839;28;8859;-72
2021/03/24 11:42:59;;;;;;;;;20.75;19.50;;;;;;;;5003496;28;9714;-73
2021/03/24 11:45:28;;;;;;;;;23.00;20.50;;;;;;;;5005257;28;8988;-72
2021/03/24 11:48:11;;;;;;;;;21.25;17.25;;;;;;;;5002986;28;8884;-72
2021/03/24 11:50:43;;;;;;;;;24.50;20.75;;;;;;;;5004804;28;8843;-73
2021/03/24 11:53:23;;;;;;;;;26.75;20.25;;;;;;;;5003073;28;8851;-74
2021/03/24 11:55:59;;;;;;;;;25.25;21.25;;;;;;;;5004805;28;8924;-74
2021/03/24 11:58:48;;;;;;;;;22.75;22.25;;;;;;;;5002008;28;8858;-72
2021/03/24 12:01:39;;;;;;;;;31.00;24.50;;;;;;;;5000889;28;8904;-74
2021/03/24 12:04:30;;;;;;;;;25.75;23.00;;;;;;;;5005780;28;8879;-74
2021/03/24 12:07:07;;;;;;;;;27.75;22.75;;;;;;;;5010296;28;8858;-74
2021/03/24 12:09:38;;;;;;;;;26.00;23.25;;;;;;;;5018176;28;8883;-73
2021/03/24 12:12:12;;;;;;;;;26.25;26.25;;;;;;;;5005378;28;8851;-74
2021/03/24 12:14:40;;;;;;;;;33.25;28.50;;;;;;;;5004159;28;9629;-74
2021/03/24 12:17:26;;;;;;;;;31.25;24.25;;;;;;;;5006072;28;8875;-73
2021/03/24 12:20:04;;;;;;;;;28.50;26.75;;;;;;;;5005281;28;8994;-73
2021/03/24 12:22:33;;;;;;;;;30.25;28.50;;;;;;;;5004859;28;8873;-73
2021/03/24 12:25:05;;;;;;;;;28.25;28.25;;;;;;;;5006208;28;8951;-73
2021/03/24 12:27:34;;;;;;;;;26.50;26.50;;;;;;;;5002869;28;8843;-72
2021/03/24 12:30:05;;;;;;;;;27.50;27.50;;;;;;;;5004575;28;8866;-72
2021/03/24 12:32:35;;;;;;;;;27.25;25.00;;;;;;;;5002833;28;8872;-71
2021/03/24 12:35:04;;;;;;;;;31.25;25.00;;;;;;;;5004369;28;9638;-72
2021/03/24 12:37:35;;;;;;;;;35.00;30.25;;;;;;;;5001874;28;8886;-74
2021/03/24 12:40:12;;;;;;;;;27.50;24.00;;;;;;;;5002696;28;8889;-71
2021/03/24 12:42:40;;;;;;;;;27.25;24.25;;;;;;;;5003906;28;8870;-71
2021/03/24 12:45:28;;;;;;;;;21.00;21.00;;;;;;;;5002910;28;8875;-73
2021/03/24 12:48:08;;;;;;;;;32.00;26.00;;;;;;;;5001765;28;8899;-72
2021/03/24 12:50:49;;;;;;;;;27.75;24.25;;;;;;;;5003110;28;8886;-72
2021/03/24 12:53:26;;;;;;;;;29.25;26.75;;;;;;;;5002176;28;8898;-72
2021/03/24 12:56:05;;;;;;;;;31.00;27.00;;;;;;;;4997460;28;8899;-72
2021/03/24 12:58:41;;;;;;;;;25.25;21.75;;;;;;;;4999978;28;8874;-73
2021/03/24 13:01:31;;;;;;;;;27.00;25.75;;;;;;;;5000750;28;8826;-72
2021/03/24 13:04:40;;;;;;;;;24.00;23.00;;;;;;;;4988202;28;8878;-72
2021/03/24 13:07:35;;;;;;;;;25.75;22.75;;;;;;;;5001788;28;8900;-72
2021/03/24 13:10:24;;;;;;;;;37.75;31.00;;;;;;;;4976373;28;9676;-70
2021/03/24 13:25:44;;;;;;;;;57.75;44.75;;;;;;;;5130730;27;13531;-73
2021/03/24 13:28:47;;;;;;;;;26.75;24.75;;;;;;;;5136914;27;8877;-72
2021/03/24 13:31:18;;;;;;;;;174.00;141.00;;;;;;;;5122350;27;8901;-73
2021/03/24 13:34:14;;;;;;;;;18.00;16.00;;;;;;;;5138428;27;11604;-74
2021/03/24 13:36:48;;;;;;;;;163.00;130.00;;;;;;;;5143365;27;8850;-74
2021/03/24 13:39:17;;;;;;;;;63.75;47.75;;;;;;;;5148711;27;11560;-72
2021/03/24 13:41:48;;;;;;;;;16.25;15.75;;;;;;;;5147688;27;8926;-72
2021/03/24 13:44:31;;;;;;;;;17.50;15.50;;;;;;;;5146913;27;8958;-73
2021/03/24 13:47:01;;;;;;;;;15.50;14.75;;;;;;;;5138975;27;9001;-73
2021/03/24 13:49:41;;;;;;;;;16.00;13.00;;;;;;;;5143477;27;8887;-72
2021/03/24 13:52:37;;;;;;;;;14.75;13.25;;;;;;;;5151210;27;9620;-72
2021/03/24 13:55:24;;;;;;;;;15.60;15.60;;;;;;;;5146602;27;8866;-72
2021/03/24 13:58:04;;;;;;;;;17.00;15.80;;;;;;;;5142702;27;8834;-73
2021/03/24 14:00:35;;;;;;;;;16.40;14.60;;;;;;;;5143075;27;8839;-72
2021/03/24 14:03:15;;;;;;;;;19.60;16.00;;;;;;;;5146170;27;8867;-75
2021/03/24 14:05:48;;;;;;;;;17.60;14.40;;;;;;;;5138294;27;9735;-72
2021/03/24 14:08:26;;;;;;;;;17.40;16.40;;;;;;;;5150276;27;8856;-72
2021/03/24 14:11:14;;;;;;;;;18.00;15.40;;;;;;;;5128230;27;8935;-73
2021/03/24 14:13:54;;;;;;;;;20.20;18.60;;;;;;;;5138471;27;8852;-73
2021/03/24 14:16:36;;;;;;;;;18.00;18.00;;;;;;;;5137593;27;8853;-73
2021/03/24 14:19:24;;;;;;;;;17.80;14.80;;;;;;;;5131791;27;8892;-73
2021/03/24 14:21:59;;;;;;;;;20.80;17.20;;;;;;;;5133096;27;8851;-75
2021/03/24 14:24:42;;;;;;;;;19.60;18.80;;;;;;;;5133193;27;8912;-73
2021/03/24 14:27:25;;;;;;;;;18.40;16.60;;;;;;;;5126463;27;9029;-73
2021/03/24 14:30:03;;;;;;;;;18.20;15.00;;;;;;;;5123087;27;8907;-75
2021/03/24 14:32:40;;;;;;;;;15.80;15.00;;;;;;;;5077764;28;8819;-75
2021/03/24 14:35:19;;;;;;;;;17.00;15.00;;;;;;;;5075910;28;9008;-76
2021/03/24 14:37:58;;;;;;;;;11.60;11.40;;;;;;;;5085969;28;8863;-74
2021/03/24 14:40:31;;;;;;;;;12.80;12.00;;;;;;;;5077848;28;8890;-76
2021/03/24 14:43:03;;;;;;;;;15.00;14.60;;;;;;;;5084916;28;9745;-74
2021/03/24 14:45:52;;;;;;;;;15.00;15.00;;;;;;;;5073826;28;8867;-74
2021/03/24 14:48:45;;;;;;;;;11.80;11.80;;;;;;;;5078131;28;8870;-75
2021/03/24 14:51:36;;;;;;;;;11.00;11.00;;;;;;;;5077405;28;8885;-75
2021/03/24 14:54:21;;;;;;;;;17.40;15.60;;;;;;;;5075220;28;8838;-74
2021/03/24 14:57:01;;;;;;;;;11.80;11.60;;;;;;;;5078624;28;8910;-75
2021/03/24 14:59:31;;;;;;;;;14.80;14.00;;;;;;;;5075072;28;8850;-74
2021/03/24 15:02:29;;;;;;;;;18.20;14.20;;;;;;;;5078434;27;8842;-75
2021/03/24 15:04:57;;;;;;;;;18.20;15.40;;;;;;;;5077902;28;9429;-75
2021/03/24 15:07:34;;;;;;;;;14.40;11.40;;;;;;;;5077803;28;8826;-73
2021/03/24 15:10:16;;;;;;;;;13.00;12.80;;;;;;;;5073461;28;8934;-73
2021/03/24 15:12:47;;;;;;;;;9.40;9.00;;;;;;;;5076619;28;8871;-73
2021/03/24 15:15:32;;;;;;;;;12.00;9.80;;;;;;;;5070790;28;8865;-77
2021/03/24 15:18:08;;;;;;;;;9.00;9.00;;;;;;;;5079074;28;8903;-77
2021/03/24 15:20:37;;;;;;;;;11.20;11.20;;;;;;;;5074804;28;8849;-71
2021/03/24 15:23:31;;;;;;;;;12.40;10.80;;;;;;;;5075640;28;8823;-74
2021/03/24 15:26:01;;;;;;;;;14.40;12.00;;;;;;;;5074410;28;9719;-76
2021/03/24 15:28:43;;;;;;;;;9.40;8.00;;;;;;;;5075856;28;8914;-74
2021/03/24 15:31:45;;;;;;;;;6.80;5.80;;;;;;;;5073270;28;8806;-73
2021/03/24 15:34:42;;;;;;;;;9.00;9.00;;;;;;;;5026649;28;8970;-72
2021/03/24 15:37:20;;;;;;;;;12.60;11.80;;;;;;;;4987241;28;8908;-73